Language selection

My Weather Profile Weather Topics  | 

West Brevoort - southern half: Past 24 Hour Conditions

 

Puvirnituq Airport

09:00 PM EST 28 January 2022
Disclaimer

This table is a summary of hourly weather conditions for the past 24 hours.
Please note that these observations might not always be representative of weather conditions over their associated marine area.

Date / Time
(EST)
Wind(knots) Conditions Visibility(km) Pressure(kPa) Air tempC) Relative humidity(%) Dew pointC) Wind Chill
28 January 2022
21:00 SW 11 Clear 16 100.9 -30 72 -34 -44
20:00 WSW 14 Clear 16 100.8 -30 72 -34 -45
19:00 SW 13 Clear 16 100.8 -30 72 -33 -44
18:00 WSW 16 Partly Cloudy 16 100.8 -29 73 -32 -44
17:00 W 15 Partly Cloudy 16 100.7 -27 74 -30 -42
16:00 W 14 Mostly Cloudy 15 100.6 -27 74 -31 -41
15:00 W 13 Sunny 16 100.5 -29 73 -32 -43
14:00 WNW 10 Mainly Sunny 16 100.5 -28 74 -31 -40
13:00 W 12 Mainly Sunny 16 100.4 -28 74 -31 -41
12:00 WNW 10 Partly Cloudy 16 100.4 -28 73 -32 -40
11:00 W 15 Sunny 16 100.3 -29 73 -32 -43
10:00 W 13 Sunny 16 100.2 -29 73 -32 -43
9:00 W 15 Sunny 16 100.2 -29 73 -33 -44
8:00 WNW 13 Light Snow 15 100.1 -29 73 -32 -43
7:00 WNW 11 Light Snow 6 100.0 -28 74 -31 -41
6:00 WNW 11 Cloudy 16 100.0 -28 74 -31 -40
5:00 W 11 Mostly Cloudy 16 100.0 -27 76 -30 -40
4:00 W 10 Cloudy 16 99.9 -30 73 -33 -42
3:00 W 9 Mostly Cloudy 15 99.9 -31 72 -34 -43
2:00 WNW 12 Mainly Clear 16 99.8 -31 72 -34 -44
1:00 NW 12 Mainly Clear 16 99.8 -30 72 -33 -43
0:00 NW 14 Clear 16 99.7 -29 73 -33 -44
27 January 2022
23:00 NW 22 Haze 10 99.5 -28 74 -32 -45
22:00 NW 18 gust 24 Clear 13 99.5 -28 74 -31 -44
21:00 NW 23 Haze 5 99.4 -26 75 -29 -42

Zoom-in to make a selection

Map of Hudson - Hudson Bay marine weather areas Arviat Airport Baker Lake Airport Chesterfield Inlet Airport Coral Harbour Airport Rankin Inlet Airport Sanikiluaq Airport Whale Cove Airport Kinngait (Cape Dorset Airport) Iqaluit Airport Wager Bay Kimmirut Airport Churchill Airport Fort Severn Airport Peawanuck Airport Moosonee Airport Eastmain Airport La Grande Rivière Airport Waskaganish Airport Wemindji Airport Akulivik Airport Inukjuak Airport Ivujivik Airport Kuujjuarapik Airport Puvirnituq Airport Umiujaq Airport Aupaluk Airport Kangiqsujuaq Airport Kangirsuk Airport Kangiqsualujjuaq Airport Kuujjuaq Airport Quaqtaq Airport Salluit Airport Tasiujaq Airport Cape Kakkiviak
Legend:
buoy Buoy
land station Land Station

Hudson - Hudson Bay Area

Another Region

What we are doing

Features

Hello Weather

Hello Weather: our upgraded telephone weather service is here. 1-833-794-3556 or 1-833-79HELLO.

Date modified: